createdAt,value
2022-09-06T07:29:26.762Z,41.81
2022-09-06T07:33:55.645Z,41.92
2022-09-06T07:36:03.245Z,41.55
2022-09-06T07:38:05.791Z,40.45
2022-09-06T07:40:08.936Z,40.18
2022-09-06T07:42:11.332Z,40.40
2022-09-06T07:44:13.927Z,40.43
2022-09-06T07:46:17.657Z,39.58
2022-09-06T07:48:19.988Z,39.39
2022-09-06T07:55:07.742Z,40.02
2022-09-06T07:57:12.171Z,39.10
2022-09-06T07:59:14.891Z,39.63
2022-09-06T08:01:17.255Z,38.88
2022-09-06T08:03:20.186Z,39.83
2022-09-06T08:07:44.853Z,39.34
2022-09-06T08:09:47.365Z,39.13
2022-09-06T08:11:51.181Z,38.60
2022-09-06T08:13:55.683Z,38.32
2022-09-06T08:16:06.843Z,38.11
2022-09-06T08:18:09.239Z,38.59
2022-09-06T08:20:12.814Z,38.25
2022-09-06T08:22:15.607Z,37.66
2022-09-06T08:24:18.027Z,37.79
2022-09-06T08:26:22.495Z,38.81
2022-09-06T08:28:28.547Z,38.59
2022-09-06T08:30:31.289Z,38.87
2022-09-06T08:32:36.500Z,38.69
2022-09-06T08:34:39.035Z,37.71
2022-09-06T08:36:42.569Z,38.56
2022-09-06T08:38:45.875Z,38.58
2022-09-06T08:40:48.584Z,37.40
2022-09-06T08:42:51.641Z,36.83
2022-09-06T08:44:58.553Z,37.29
2022-09-06T08:47:07.727Z,37.50
2022-09-06T08:49:10.513Z,36.92
2022-09-06T08:51:21.535Z,36.09
2022-09-06T08:53:24.575Z,36.22
2022-09-06T08:55:52.911Z,36.75
2022-09-06T08:58:29.329Z,36.88
2022-09-06T09:00:34.440Z,37.72
2022-09-06T09:02:47.450Z,36.56
2022-09-06T09:04:56.179Z,35.98
2022-09-06T09:07:06.964Z,35.61
2022-09-06T09:09:13.444Z,35.09
2022-09-06T09:11:20.246Z,35.08
2022-09-06T09:13:53.820Z,35.80
2022-09-06T09:15:57.803Z,35.49
2022-09-06T09:18:00.182Z,35.24
2022-09-06T09:20:03.555Z,35.03
2022-09-06T09:22:06.075Z,35.25
2022-09-06T09:24:11.330Z,34.74
2022-09-06T09:26:15.499Z,33.60
2022-09-06T09:28:20.231Z,34.88
2022-09-06T09:32:47.603Z,35.59
2022-09-06T09:34:50.687Z,35.80
2022-09-06T09:39:43.320Z,34.68
2022-09-06T09:41:50.609Z,35.62
2022-09-06T09:44:03.655Z,35.39
2022-09-06T09:46:15.984Z,36.71
2022-09-06T09:48:27.286Z,36.05
2022-09-06T09:50:34.863Z,37.49
2022-09-06T09:52:44.453Z,37.21
2022-09-06T09:54:47.717Z,37.00
2022-09-06T09:56:52.929Z,35.60
2022-09-06T09:58:58.162Z,35.30
2022-09-06T10:01:26.579Z,35.43
2022-09-06T10:03:31.226Z,34.99
2022-09-06T10:05:33.709Z,34.64
2022-09-06T10:07:51.219Z,35.58
2022-09-06T10:09:56.532Z,34.72
2022-09-06T10:11:59.649Z,34.86
2022-09-06T10:14:23.316Z,34.41
2022-09-06T10:16:43.708Z,34.03
2022-09-06T10:18:46.112Z,34.11
2022-09-06T10:20:54.920Z,34.20
2022-09-06T10:26:16.430Z,34.34
2022-09-06T10:28:41.963Z,33.17
2022-09-06T10:31:28.459Z,33.87
2022-09-06T10:34:02.041Z,34.57
2022-09-06T10:36:04.723Z,34.95
2022-09-06T10:38:32.468Z,33.97
2022-09-06T10:41:03.247Z,33.41
2022-09-06T10:43:10.263Z,33.60
2022-09-06T10:45:36.241Z,33.62
2022-09-06T10:47:49.536Z,33.21
2022-09-06T10:49:57.905Z,33.96
2022-09-06T10:52:04.485Z,33.58
2022-09-06T10:54:10.651Z,33.44
2022-09-06T10:56:57.732Z,33.12
2022-09-06T11:02:08.744Z,33.86
2022-09-06T11:04:23.277Z,33.33
2022-09-06T11:06:32.768Z,32.90
2022-09-06T11:08:48.003Z,32.73
2022-09-06T11:10:52.625Z,32.48
2022-09-06T11:13:04.198Z,32.03
2022-09-06T11:15:10.450Z,31.32
2022-09-06T11:17:27.792Z,30.55
2022-09-06T11:19:39.766Z,30.45
2022-09-06T11:22:13.477Z,29.47
2022-09-06T11:24:37.607Z,27.85
2022-09-06T11:26:44.631Z,25.24
2022-09-06T11:28:55.951Z,23.73
2022-09-06T11:30:59.135Z,21.68
2022-09-06T11:33:21.577Z,21.46
2022-09-06T11:35:28.678Z,19.53
2022-09-06T11:37:34.957Z,20.29
2022-09-06T11:42:42.239Z,18.41
2022-09-06T11:44:51.964Z,18.70
2022-09-06T11:46:58.916Z,18.78
2022-09-06T11:49:09.208Z,17.96
2022-09-06T11:51:12.413Z,18.95
2022-09-06T11:53:17.644Z,17.20
2022-09-06T11:58:54.578Z,17.73
2022-09-06T12:01:12.451Z,18.15
2022-09-06T12:06:17.764Z,18.97
2022-09-06T12:08:33.501Z,18.49
2022-09-06T12:10:49.855Z,18.85
2022-09-06T12:12:52.691Z,16.36
2022-09-06T12:14:55.648Z,14.63
2022-09-06T12:16:58.013Z,14.77
2022-09-06T12:19:01.937Z,15.17
2022-09-06T12:21:04.817Z,15.57
2022-09-06T12:23:07.137Z,14.86
2022-09-06T12:25:29.626Z,14.43
2022-09-06T12:27:35.144Z,15.44
2022-09-06T12:29:37.580Z,15.16
2022-09-06T12:31:44.211Z,14.31
2022-09-06T12:33:48.110Z,15.01
2022-09-06T12:35:59.306Z,13.74
2022-09-06T12:38:06.530Z,14.19
2022-09-06T12:40:15.477Z,13.97
2022-09-06T12:42:19.462Z,13.96
2022-09-06T12:44:29.190Z,13.98
2022-09-06T12:46:33.040Z,14.47
2022-09-06T12:48:41.253Z,13.75
2022-09-06T12:50:44.411Z,13.71
2022-09-06T12:52:55.068Z,13.04
2022-09-06T12:54:57.399Z,12.43
2022-09-06T12:57:14.657Z,13.29
2022-09-06T12:59:25.173Z,12.93
2022-09-06T13:01:33.805Z,11.94
2022-09-06T13:03:56.238Z,12.15
2022-09-06T13:06:02.323Z,12.10
2022-09-06T13:08:05.115Z,13.77
2022-09-06T13:10:08.676Z,14.34
2022-09-06T13:12:50.432Z,14.03
2022-09-06T13:14:58.187Z,15.49
2022-09-06T13:17:01.211Z,16.57
2022-09-06T13:19:37.556Z,17.52
2022-09-06T13:21:42.087Z,19.27
2022-09-06T13:23:50.441Z,20.39
2022-09-06T13:25:54.968Z,21.95
2022-09-06T13:28:01.732Z,23.32
2022-09-06T13:30:09.244Z,22.92
2022-09-06T13:32:14.689Z,21.66
2022-09-06T13:34:24.872Z,21.70
2022-09-06T13:36:28.667Z,22.02
2022-09-06T13:38:38.975Z,22.70
2022-09-06T13:41:06.726Z,22.81
2022-09-06T13:43:11.465Z,23.63
2022-09-06T13:45:31.762Z,24.52
2022-09-06T13:47:34.050Z,24.21
2022-09-06T13:49:36.492Z,25.31
2022-09-06T13:51:40.680Z,25.44
2022-09-06T13:53:43.008Z,25.92
2022-09-06T13:55:45.269Z,25.46
2022-09-06T13:57:48.228Z,25.13
2022-09-06T13:59:50.484Z,25.91
2022-09-06T14:02:12.092Z,24.87
2022-09-06T14:04:19.709Z,26.44
2022-09-06T14:06:22.537Z,27.26
2022-09-06T14:08:24.980Z,26.25
2022-09-06T14:10:27.661Z,25.71
2022-09-06T14:12:30.067Z,24.85
2022-09-06T14:14:33.078Z,24.52
2022-09-06T14:16:38.623Z,25.48
2022-09-06T14:18:41.486Z,25.67
2022-09-06T14:20:54.297Z,24.94
2022-09-06T14:22:56.894Z,24.55
2022-09-06T14:24:59.181Z,24.73
2022-09-06T14:27:01.991Z,24.35
2022-09-06T14:29:04.939Z,24.76
2022-09-06T14:31:12.200Z,24.58
2022-09-06T14:33:14.579Z,24.39
2022-09-06T14:35:17.291Z,24.72
2022-09-06T14:37:21.708Z,25.39
2022-09-06T14:39:24.113Z,25.94
2022-09-06T14:41:27.588Z,25.64
2022-09-06T14:43:29.899Z,25.61
2022-09-06T14:45:35.396Z,24.46
2022-09-06T14:47:39.371Z,25.44
2022-09-06T14:49:41.734Z,24.53
2022-09-06T14:51:44.263Z,24.26
2022-09-06T14:53:46.886Z,24.14
2022-09-06T14:55:49.149Z,24.97
2022-09-06T14:57:51.462Z,24.84
2022-09-06T14:59:54.099Z,25.35
2022-09-06T15:01:57.445Z,24.68
2022-09-06T15:04:03.145Z,24.47
2022-09-06T15:06:06.093Z,24.63
2022-09-06T15:08:08.547Z,25.00
2022-09-06T15:10:10.944Z,24.55
2022-09-06T15:12:13.583Z,25.19
2022-09-06T15:14:20.152Z,25.02
2022-09-06T15:16:23.485Z,24.35
2022-09-06T15:18:26.058Z,25.42
2022-09-06T15:20:28.359Z,26.42
2022-09-06T15:22:31.194Z,26.75
2022-09-06T15:24:34.554Z,27.72
2022-09-06T15:26:36.853Z,29.80
2022-09-06T15:28:40.956Z,30.34
2022-09-06T15:30:44.492Z,31.24
2022-09-06T15:32:47.168Z,31.50
2022-09-06T15:34:49.504Z,31.28
2022-09-06T15:36:53.349Z,31.18
2022-09-06T15:38:57.730Z,32.53
2022-09-06T15:41:23.499Z,32.14
2022-09-06T15:43:26.557Z,31.93
2022-09-06T15:45:29.778Z,31.57
2022-09-06T15:47:35.365Z,31.73
2022-09-06T15:49:37.912Z,32.45
2022-09-06T15:51:42.058Z,33.07
2022-09-06T15:53:44.932Z,32.87
2022-09-06T15:55:56.473Z,32.47
2022-09-06T15:57:58.771Z,31.41
2022-09-06T16:00:01.233Z,30.90
2022-09-06T16:02:03.674Z,32.10
2022-09-06T16:04:06.787Z,33.90
2022-09-06T16:08:26.895Z,34.39
2022-09-06T16:10:30.147Z,34.56
2022-09-06T16:12:32.436Z,35.14
2022-09-06T16:14:35.733Z,34.65
2022-09-06T16:16:40.409Z,33.78
2022-09-06T16:18:45.035Z,35.81
2022-09-06T16:20:47.365Z,35.91
2022-09-06T16:22:49.948Z,34.68
2022-09-06T16:24:52.301Z,35.37
2022-09-06T16:26:54.814Z,35.05
2022-09-06T16:28:57.661Z,33.72
2022-09-06T16:31:06.028Z,33.47
2022-09-06T16:33:08.406Z,33.43
2022-09-06T16:35:11.001Z,32.99
2022-09-06T16:37:13.479Z,33.07
2022-09-06T16:39:15.845Z,32.93
2022-09-06T16:41:27.063Z,32.54
2022-09-06T16:43:33.278Z,33.04
2022-09-06T16:45:35.617Z,33.00
2022-09-06T16:47:38.485Z,33.35
2022-09-06T16:49:41.043Z,33.37
2022-09-06T16:51:44.113Z,33.66
2022-09-06T16:53:47.933Z,33.83
2022-09-06T16:55:51.221Z,34.03
2022-09-06T16:57:53.766Z,35.76
2022-09-06T16:59:56.357Z,37.16
2022-09-06T17:01:58.741Z,38.44
2022-09-06T17:04:02.338Z,37.49
2022-09-06T17:06:07.252Z,37.94
2022-09-06T17:08:10.039Z,37.70
2022-09-06T17:10:12.533Z,38.75
2022-09-06T17:12:15.051Z,39.48
2022-09-06T17:14:18.044Z,40.75
2022-09-06T17:16:40.585Z,40.59
2022-09-06T17:18:43.424Z,41.58
2022-09-06T17:21:04.768Z,40.81
2022-09-06T17:23:07.142Z,42.02
2022-09-06T17:25:10.282Z,41.12
2022-09-06T17:27:13.005Z,41.58
2022-09-06T17:29:15.494Z,41.99
2022-09-06T17:31:23.585Z,43.08
2022-09-06T17:33:28.445Z,43.57
2022-09-06T17:35:30.845Z,42.45
2022-09-06T17:37:33.565Z,41.15
2022-09-06T17:39:36.376Z,41.00
2022-09-06T17:41:40.253Z,40.18
2022-09-06T17:43:43.267Z,41.06
2022-09-06T17:45:45.802Z,41.89
2022-09-06T17:47:48.503Z,44.89
2022-09-06T17:49:51.290Z,45.29
2022-09-06T17:51:53.714Z,46.14
2022-09-06T17:53:56.203Z,45.35
2022-09-06T17:56:03.928Z,45.35
2022-09-06T17:58:06.624Z,45.12
2022-09-06T18:00:11.211Z,45.96
2022-09-06T18:02:14.032Z,45.49
2022-09-06T18:04:16.710Z,44.91
2022-09-06T18:06:22.943Z,46.00
2022-09-06T18:08:26.507Z,46.16
2022-09-06T18:10:29.041Z,46.49
2022-09-06T18:12:31.553Z,46.52
2022-09-06T18:14:37.228Z,47.68
2022-09-06T18:16:40.531Z,47.15
2022-09-06T18:18:43.305Z,47.29
2022-09-06T18:20:47.025Z,46.38
2022-09-06T18:22:49.397Z,47.43
2022-09-06T18:24:57.539Z,46.60
2022-09-06T18:27:03.171Z,47.20
2022-09-06T18:29:12.344Z,47.24
2022-09-06T18:31:17.793Z,46.66
2022-09-06T18:33:24.159Z,47.72
2022-09-06T18:35:26.787Z,47.59
2022-09-06T18:37:29.438Z,47.28
2022-09-06T18:39:32.419Z,47.98
2022-09-06T18:41:53.907Z,47.87
2022-09-06T18:43:58.095Z,46.57
2022-09-06T18:46:13.991Z,46.25
2022-09-06T18:48:17.736Z,46.86
2022-09-06T18:50:22.324Z,46.63
2022-09-06T18:52:25.377Z,47.04
2022-09-06T18:54:28.280Z,47.03
2022-09-06T18:56:31.036Z,46.82
2022-09-06T18:58:34.068Z,46.92
2022-09-06T19:00:38.108Z,47.60
2022-09-06T19:02:40.847Z,47.63
2022-09-06T19:04:43.994Z,47.95
2022-09-06T19:06:47.785Z,46.72
2022-09-06T19:08:52.424Z,47.72
2022-09-06T19:11:03.726Z,49.25
2022-09-06T19:13:06.464Z,48.41
2022-09-06T19:15:09.702Z,48.12
2022-09-06T19:17:12.807Z,49.14
2022-09-06T19:19:15.215Z,49.02
2022-09-06T19:21:20.110Z,50.51
2022-09-06T19:23:23.049Z,51.14
2022-09-06T19:25:25.872Z,50.21
2022-09-06T19:27:28.701Z,50.75
2022-09-06T19:29:32.375Z,50.59
2022-09-06T19:31:37.539Z,52.36
2022-09-06T19:33:41.172Z,51.64
2022-09-06T19:36:07.683Z,51.21
2022-09-06T19:38:06.776Z,51.75
2022-09-06T19:40:10.319Z,51.02
2022-09-06T19:42:13.357Z,51.67
2022-09-06T19:47:41.240Z,52.39
2022-09-06T19:49:44.159Z,52.66
2022-09-06T19:51:49.225Z,52.93
2022-09-06T19:53:54.276Z,53.75
2022-09-06T19:55:58.176Z,53.44
2022-09-06T19:58:03.792Z,52.93
2022-09-06T20:00:07.011Z,53.47
2022-09-06T20:02:14.398Z,53.31
2022-09-06T20:04:17.573Z,53.89
2022-09-06T20:06:20.412Z,53.99
2022-09-06T20:08:23.326Z,54.12
2022-09-06T20:10:26.265Z,54.00
2022-09-06T20:12:30.127Z,54.64
2022-09-06T20:14:32.782Z,54.64
2022-09-06T20:16:40.617Z,55.19
2022-09-06T20:18:43.962Z,55.24
2022-09-06T20:20:47.673Z,54.79
2022-09-06T20:22:50.807Z,53.96
2022-09-06T20:24:53.257Z,54.29
2022-09-06T20:26:56.071Z,54.75
2022-09-06T20:29:01.226Z,55.27
2022-09-06T20:31:16.664Z,54.87
2022-09-06T20:33:19.699Z,53.97
2022-09-06T20:35:23.203Z,52.74
2022-09-06T20:37:26.037Z,50.54
2022-09-06T20:39:29.892Z,51.36
2022-09-06T20:41:34.081Z,51.35
2022-09-06T20:43:37.690Z,52.07
2022-09-06T20:45:40.939Z,53.40
2022-09-06T20:47:43.832Z,52.14
2022-09-06T20:49:46.509Z,51.97
2022-09-06T20:51:49.245Z,49.97
2022-09-06T20:53:54.498Z,50.78
2022-09-06T20:56:03.725Z,51.31
2022-09-06T20:58:06.370Z,51.74
2022-09-06T21:00:13.790Z,52.14
2022-09-06T21:02:17.354Z,52.20
2022-09-06T21:04:19.762Z,51.39
2022-09-06T21:06:24.524Z,49.74
2022-09-06T21:08:26.829Z,50.82
2022-09-06T21:10:29.395Z,51.90
2022-09-06T21:12:32.049Z,51.34
2022-09-06T21:14:34.423Z,50.86
2022-09-06T21:16:37.845Z,51.12
2022-09-06T21:18:40.488Z,51.70
2022-09-06T21:20:42.772Z,53.44
2022-09-06T21:22:45.191Z,53.63
2022-09-06T21:24:48.912Z,54.81
2022-09-06T21:26:51.435Z,53.87
2022-09-06T21:28:54.370Z,52.68
2022-09-06T21:31:09.706Z,50.66
2022-09-06T21:33:12.007Z,50.92
2022-09-06T21:35:14.377Z,50.48
2022-09-06T21:37:17.812Z,52.07
2022-09-06T21:39:20.104Z,52.14
2022-09-06T21:41:23.460Z,51.33
2022-09-06T21:43:26.632Z,51.95
2022-09-06T21:45:29.104Z,53.39
2022-09-06T21:47:31.519Z,51.88
2022-09-06T21:49:34.104Z,49.70
2022-09-06T21:51:37.385Z,47.99
2022-09-06T21:53:40.628Z,47.98
2022-09-06T21:55:43.825Z,49.66
2022-09-06T21:57:46.239Z,50.38
2022-09-06T21:59:48.504Z,51.08
2022-09-06T22:01:52.525Z,51.15
